createdAt,value
2018-03-31T00:00:00.149Z,91.10
2018-03-31T00:02:27.614Z,91.00
2018-03-31T00:04:55.084Z,91.00
2018-03-31T00:07:22.072Z,91.00
2018-03-31T00:09:49.486Z,90.60
2018-03-31T00:12:16.608Z,90.50
2018-03-31T00:14:43.679Z,90.70
2018-03-31T00:17:10.678Z,90.70
2018-03-31T00:19:38.083Z,89.60
2018-03-31T00:22:05.084Z,89.60
2018-03-31T00:24:32.108Z,90.00
2018-03-31T00:26:59.101Z,90.30
2018-03-31T00:29:26.137Z,90.20
2018-03-31T00:31:53.605Z,89.30
2018-03-31T00:34:20.617Z,89.30
2018-03-31T00:36:47.613Z,89.50
2018-03-31T00:39:14.628Z,90.10
2018-03-31T00:41:42.096Z,91.70
2018-03-31T00:44:09.104Z,91.70
2018-03-31T00:46:36.502Z,91.60
2018-03-31T00:49:03.523Z,91.70
2018-03-31T00:51:30.591Z,91.70
2018-03-31T00:53:57.611Z,91.30
2018-03-31T00:56:24.636Z,91.20
2018-03-31T00:58:51.715Z,91.10
2018-03-31T01:01:18.793Z,90.00
2018-03-31T01:03:45.870Z,89.90
2018-03-31T01:06:12.941Z,90.60
2018-03-31T01:08:40.014Z,91.20
2018-03-31T01:11:07.018Z,91.80
2018-03-31T01:13:34.028Z,91.80
2018-03-31T01:16:01.129Z,90.70
2018-03-31T01:18:28.145Z,90.70
2018-03-31T01:20:55.137Z,91.20
2018-03-31T01:23:22.138Z,91.30
2018-03-31T01:25:49.205Z,90.60
2018-03-31T01:28:19.233Z,90.40
2018-03-31T01:30:46.325Z,90.70
2018-03-31T01:33:13.325Z,90.60
2018-03-31T01:35:40.742Z,90.50
2018-03-31T01:38:07.727Z,90.50
2018-03-31T01:40:34.820Z,90.90
2018-03-31T01:43:01.914Z,92.10
2018-03-31T01:45:29.386Z,92.70
2018-03-31T01:47:56.375Z,92.80
2018-03-31T01:50:23.834Z,91.30
2018-03-31T01:52:50.838Z,91.30
2018-03-31T01:55:17.866Z,91.50
2018-03-31T01:57:44.870Z,91.60
2018-03-31T02:00:12.327Z,91.30
2018-03-31T02:02:39.311Z,91.30
2018-03-31T02:05:06.382Z,91.20
2018-03-31T02:07:33.383Z,91.30
2018-03-31T02:10:00.412Z,90.70
2018-03-31T02:12:27.423Z,90.60
2018-03-31T02:14:54.456Z,90.00
2018-03-31T02:17:21.529Z,90.00
2018-03-31T02:19:48.618Z,90.80
2018-03-31T02:22:15.694Z,90.90
2018-03-31T02:24:43.109Z,91.20
2018-03-31T02:27:10.101Z,91.20
2018-03-31T02:29:37.132Z,91.30
2018-03-31T02:32:04.515Z,91.10
2018-03-31T02:34:31.542Z,91.10
2018-03-31T02:36:58.537Z,90.90
2018-03-31T02:39:25.597Z,91.20
2018-03-31T02:41:52.609Z,91.20
2018-03-31T02:44:19.641Z,91.00
2018-03-31T02:46:46.712Z,90.70
2018-03-31T02:49:13.716Z,90.60
2018-03-31T02:51:41.188Z,90.60
2018-03-31T02:54:08.590Z,90.80
2018-03-31T02:56:35.623Z,90.80
2018-03-31T02:59:02.628Z,90.30
2018-03-31T03:01:29.668Z,89.70
2018-03-31T03:03:56.749Z,90.00
2018-03-31T03:06:23.827Z,90.00
2018-03-31T03:08:51.306Z,92.00
2018-03-31T03:11:18.376Z,92.00
2018-03-31T03:13:45.455Z,92.50
2018-03-31T03:16:12.467Z,92.60
2018-03-31T03:18:39.493Z,91.70
2018-03-31T03:21:06.669Z,91.40
2018-03-31T03:23:33.661Z,90.70
2018-03-31T03:26:01.087Z,90.70
2018-03-31T03:28:28.105Z,90.70
2018-03-31T03:30:55.530Z,91.60
2018-03-31T03:33:22.524Z,91.60
2018-03-31T03:35:49.537Z,91.30
2018-03-31T03:38:16.925Z,91.50
2018-03-31T03:40:44.341Z,90.20
2018-03-31T03:43:11.349Z,90.20
2018-03-31T03:45:38.360Z,90.00
2018-03-31T03:48:05.363Z,89.90
2018-03-31T03:50:32.394Z,90.40
2018-03-31T03:52:59.428Z,90.50
2018-03-31T03:55:26.552Z,90.70
2018-03-31T03:57:53.987Z,89.60
2018-03-31T04:00:21.018Z,89.60
2018-03-31T04:02:48.018Z,89.70
2018-03-31T04:05:15.072Z,90.40
2018-03-31T04:07:42.060Z,90.70
2018-03-31T04:10:09.163Z,90.70
2018-03-31T04:12:36.170Z,90.80
2018-03-31T04:15:03.531Z,91.30
2018-03-31T04:17:30.537Z,91.30
2018-03-31T04:19:57.529Z,90.90
2018-03-31T04:22:24.558Z,91.00
2018-03-31T04:24:51.556Z,90.90
2018-03-31T04:27:18.584Z,91.10
2018-03-31T04:29:45.598Z,91.20
2018-03-31T04:32:12.614Z,91.40
2018-03-31T04:34:39.618Z,91.10
2018-03-31T04:37:06.628Z,90.40
2018-03-31T04:39:33.612Z,90.00
2018-03-31T04:42:00.624Z,90.40
2018-03-31T04:44:27.630Z,90.90
2018-03-31T04:46:54.641Z,91.10
2018-03-31T04:49:21.632Z,91.10
2018-03-31T04:51:49.042Z,89.70
2018-03-31T04:54:16.049Z,89.70
2018-03-31T04:56:43.074Z,90.00
2018-03-31T04:59:10.070Z,90.40
2018-03-31T05:01:37.080Z,90.20
2018-03-31T05:04:04.158Z,89.70
2018-03-31T05:06:31.578Z,89.80
2018-03-31T05:08:58.572Z,89.80
2018-03-31T05:11:25.584Z,90.10
2018-03-31T05:13:52.977Z,90.10
2018-03-31T05:16:20.386Z,89.90
2018-03-31T05:18:47.385Z,89.90
2018-03-31T05:21:14.513Z,90.20
2018-03-31T05:23:41.504Z,90.10
2018-03-31T05:26:08.520Z,90.20
2018-03-31T05:28:35.522Z,90.40
2018-03-31T05:31:02.538Z,90.20
2018-03-31T05:33:29.541Z,90.30
2018-03-31T05:35:56.545Z,90.60
2018-03-31T05:38:23.555Z,91.10
2018-03-31T05:40:50.562Z,91.30
2018-03-31T05:43:18.032Z,90.90
2018-03-31T05:45:45.030Z,90.90
2018-03-31T05:48:12.512Z,91.20
2018-03-31T05:50:39.987Z,91.90
2018-03-31T05:53:07.418Z,92.00
2018-03-31T05:55:34.427Z,92.10
2018-03-31T05:58:01.495Z,92.50
2018-03-31T06:00:28.506Z,92.70
2018-03-31T06:02:55.536Z,93.40
2018-03-31T06:05:22.617Z,94.30
2018-03-31T06:07:49.699Z,95.30
2018-03-31T06:10:17.093Z,95.50
2018-03-31T06:12:44.548Z,94.10
2018-03-31T06:15:11.617Z,94.10
2018-03-31T06:17:38.697Z,93.60
2018-03-31T06:20:05.783Z,93.50
2018-03-31T06:22:33.210Z,94.30
2018-03-31T06:25:00.212Z,94.30
2018-03-31T06:27:27.234Z,95.20
2018-03-31T06:29:54.276Z,95.40
2018-03-31T06:32:21.676Z,94.90
2018-03-31T06:34:49.126Z,95.40
2018-03-31T06:37:16.149Z,95.40
2018-03-31T06:39:43.172Z,95.80
2018-03-31T06:42:10.176Z,95.20
2018-03-31T06:44:37.220Z,94.90
2018-03-31T06:47:04.240Z,94.70
2018-03-31T06:49:31.244Z,94.70
2018-03-31T06:51:58.275Z,94.30
2018-03-31T06:54:25.269Z,94.90
2018-03-31T06:56:52.274Z,94.70
2018-03-31T06:59:19.289Z,94.80
2018-03-31T07:01:46.280Z,94.70
2018-03-31T07:04:13.389Z,94.60
2018-03-31T07:06:40.382Z,94.70
2018-03-31T07:09:07.792Z,94.00
2018-03-31T07:11:34.781Z,94.00
2018-03-31T07:14:01.820Z,89.40
2018-03-31T07:16:28.862Z,90.00
2018-03-31T07:18:55.928Z,91.20
2018-03-31T07:21:23.001Z,91.80
2018-03-31T07:23:50.026Z,92.90
2018-03-31T07:26:17.039Z,93.30
2018-03-31T07:28:44.130Z,93.30
2018-03-31T07:31:11.527Z,93.20
2018-03-31T07:33:38.986Z,92.80
2018-03-31T07:36:06.056Z,92.80
2018-03-31T07:38:33.120Z,92.60
2018-03-31T07:41:00.148Z,90.70
2018-03-31T07:43:27.174Z,89.80
2018-03-31T07:45:54.183Z,88.70
2018-03-31T07:48:21.223Z,87.50
2018-03-31T07:50:48.216Z,85.00
2018-03-31T07:53:15.250Z,85.40
2018-03-31T07:55:42.324Z,85.30
2018-03-31T07:58:09.410Z,83.70
2018-03-31T08:00:36.409Z,84.90
2018-03-31T08:03:03.434Z,82.70
2018-03-31T08:05:30.437Z,81.40
2018-03-31T08:07:57.622Z,81.90
2018-03-31T08:10:25.012Z,81.00
2018-03-31T08:12:52.048Z,81.00
2018-03-31T08:15:19.046Z,79.30
2018-03-31T08:17:46.054Z,81.10
2018-03-31T08:20:13.174Z,78.60
2018-03-31T08:22:40.663Z,78.70
2018-03-31T08:25:08.138Z,76.50
2018-03-31T08:27:35.622Z,77.40
2018-03-31T08:30:03.099Z,77.70
2018-03-31T08:32:30.100Z,77.80
2018-03-31T08:34:57.152Z,77.30
2018-03-31T08:37:24.556Z,77.60
2018-03-31T08:39:51.586Z,77.60
2018-03-31T08:42:18.601Z,75.00
2018-03-31T08:44:46.612Z,75.10
2018-03-31T08:47:13.616Z,74.90
2018-03-31T08:49:40.633Z,75.10
2018-03-31T08:52:07.621Z,74.10
2018-03-31T08:54:34.695Z,72.00
2018-03-31T08:57:02.049Z,71.50
2018-03-31T08:59:29.523Z,70.60
2018-03-31T09:01:56.927Z,70.80
2018-03-31T09:04:23.943Z,70.80
2018-03-31T09:06:50.940Z,70.10
2018-03-31T09:09:18.396Z,66.40
2018-03-31T09:11:45.407Z,66.40
2018-03-31T09:14:12.865Z,66.70
2018-03-31T09:16:39.991Z,66.70
2018-03-31T09:19:07.004Z,62.50
2018-03-31T09:21:34.088Z,63.30
2018-03-31T09:24:01.160Z,58.20
2018-03-31T09:26:28.263Z,55.80
2018-03-31T09:28:55.289Z,57.40
2018-03-31T09:31:22.289Z,58.70
2018-03-31T09:33:49.330Z,60.20
2018-03-31T09:36:16.855Z,59.30
2018-03-31T09:38:44.291Z,58.10
2018-03-31T09:41:11.318Z,58.10
2018-03-31T09:43:38.353Z,58.90
2018-03-31T09:46:05.391Z,58.80
2018-03-31T09:48:32.384Z,58.30
2018-03-31T09:50:59.491Z,58.30
2018-03-31T09:53:26.956Z,62.10
2018-03-31T09:55:53.977Z,62.10
2018-03-31T09:58:21.013Z,61.50
2018-03-31T10:00:48.424Z,58.50
2018-03-31T10:03:15.420Z,58.50
2018-03-31T10:05:42.528Z,59.20
2018-03-31T10:08:09.538Z,58.70
2018-03-31T10:10:36.574Z,58.20
2018-03-31T10:13:03.603Z,58.10
2018-03-31T10:15:30.635Z,57.40
2018-03-31T10:17:58.042Z,57.80
2018-03-31T10:20:25.091Z,57.80
2018-03-31T10:22:52.498Z,57.80
2018-03-31T10:25:19.517Z,57.80
2018-03-31T10:27:46.626Z,59.20
2018-03-31T10:30:13.654Z,58.00
2018-03-31T10:32:40.708Z,58.10
2018-03-31T10:35:07.742Z,58.40
2018-03-31T10:37:34.736Z,58.80
2018-03-31T10:40:01.760Z,60.60
2018-03-31T10:42:28.769Z,58.50
2018-03-31T10:44:55.794Z,59.00
2018-03-31T10:47:22.829Z,59.40
2018-03-31T10:49:49.859Z,57.90
2018-03-31T10:52:17.266Z,58.40
2018-03-31T10:54:44.285Z,58.40
2018-03-31T10:57:11.364Z,57.70
2018-03-31T10:59:38.406Z,56.90
2018-03-31T11:02:05.404Z,57.90
2018-03-31T11:04:32.497Z,58.30
2018-03-31T11:06:59.908Z,57.60
2018-03-31T11:09:26.954Z,57.60
2018-03-31T11:11:54.372Z,56.40
2018-03-31T11:14:21.397Z,56.40
2018-03-31T11:16:48.463Z,57.40
2018-03-31T11:19:15.544Z,57.70
2018-03-31T11:21:42.622Z,56.30
2018-03-31T11:24:10.026Z,55.40
2018-03-31T11:26:37.058Z,55.40
2018-03-31T11:29:04.057Z,55.60
2018-03-31T11:31:31.521Z,55.90
2018-03-31T11:33:58.602Z,56.00
2018-03-31T11:36:26.034Z,56.20
2018-03-31T11:38:53.155Z,56.20
2018-03-31T11:41:20.239Z,56.90
2018-03-31T11:43:47.642Z,57.40
2018-03-31T11:46:14.668Z,57.50
2018-03-31T11:48:41.671Z,58.60
2018-03-31T11:51:09.141Z,58.00
2018-03-31T11:53:36.545Z,57.50
2018-03-31T11:56:03.587Z,57.50
2018-03-31T11:58:30.593Z,58.10
2018-03-31T12:00:57.634Z,55.70
2018-03-31T12:03:24.700Z,56.50
2018-03-31T12:05:51.776Z,55.70
2018-03-31T12:08:18.851Z,54.80
2018-03-31T12:10:45.863Z,55.10
2018-03-31T12:13:12.893Z,54.80
2018-03-31T12:15:39.924Z,54.70
2018-03-31T12:18:06.920Z,54.80
2018-03-31T12:20:34.008Z,55.10
2018-03-31T12:23:01.080Z,54.10
2018-03-31T12:25:28.165Z,55.40
2018-03-31T12:27:55.646Z,55.50
2018-03-31T12:30:23.065Z,53.90
2018-03-31T12:32:50.076Z,53.90
2018-03-31T12:35:17.082Z,54.00
2018-03-31T12:37:44.517Z,53.20
2018-03-31T12:40:11.515Z,53.20
2018-03-31T12:42:38.529Z,52.70
2018-03-31T12:45:05.538Z,54.20
2018-03-31T12:47:32.556Z,53.10
2018-03-31T12:49:59.570Z,53.30
2018-03-31T12:52:26.626Z,52.90
2018-03-31T12:54:53.630Z,52.20
2018-03-31T12:57:20.796Z,52.60
2018-03-31T12:59:47.807Z,53.00
2018-03-31T13:02:15.282Z,52.70
2018-03-31T13:04:42.676Z,52.00
2018-03-31T13:07:10.142Z,54.00
2018-03-31T13:09:37.218Z,54.00
2018-03-31T13:12:04.632Z,52.50
2018-03-31T13:14:31.659Z,52.50
2018-03-31T13:16:58.751Z,52.70
2018-03-31T13:19:26.230Z,51.20
2018-03-31T13:21:53.700Z,50.90
2018-03-31T13:24:20.791Z,50.90
2018-03-31T13:26:48.210Z,51.90
2018-03-31T13:29:15.213Z,51.90
2018-03-31T13:31:42.232Z,51.50
2018-03-31T13:34:09.248Z,50.90
2018-03-31T13:36:36.268Z,51.50
2018-03-31T13:39:03.652Z,50.60
2018-03-31T13:41:30.679Z,50.60
2018-03-31T13:43:57.689Z,49.30
2018-03-31T13:46:24.688Z,50.00
2018-03-31T13:48:51.757Z,50.70
2018-03-31T13:51:18.777Z,50.20
2018-03-31T13:53:45.818Z,50.50
2018-03-31T13:56:12.936Z,50.80
2018-03-31T13:58:40.432Z,50.50
2018-03-31T14:01:07.440Z,50.40
2018-03-31T14:03:34.452Z,50.80
2018-03-31T14:06:01.511Z,51.70
2018-03-31T14:08:28.596Z,52.40
2018-03-31T14:10:55.694Z,52.60
2018-03-31T14:13:22.717Z,52.10
2018-03-31T14:15:49.725Z,52.80
2018-03-31T14:18:17.144Z,53.50
2018-03-31T14:20:44.148Z,53.50
2018-03-31T14:23:11.171Z,53.60
2018-03-31T14:25:38.219Z,53.50
2018-03-31T14:28:06.133Z,54.00
2018-03-31T14:30:33.155Z,54.00
2018-03-31T14:33:00.176Z,54.40
2018-03-31T14:35:27.184Z,53.80
2018-03-31T14:37:54.210Z,54.00
2018-03-31T14:40:21.694Z,54.00
2018-03-31T14:42:49.161Z,55.10
2018-03-31T14:45:16.567Z,55.20
2018-03-31T14:47:43.604Z,55.20
2018-03-31T14:50:10.728Z,53.80
2018-03-31T14:52:37.749Z,54.10
2018-03-31T14:55:04.810Z,52.60
2018-03-31T14:57:31.893Z,53.50
2018-03-31T14:59:59.012Z,53.40
2018-03-31T15:02:26.042Z,54.00
2018-03-31T15:04:53.055Z,53.80
2018-03-31T15:07:20.073Z,54.20
2018-03-31T15:09:47.174Z,54.40
2018-03-31T15:12:14.593Z,53.70
2018-03-31T15:14:41.637Z,53.70
2018-03-31T15:17:09.108Z,53.90
2018-03-31T15:19:36.591Z,53.40
2018-03-31T15:22:04.062Z,52.40
2018-03-31T15:24:31.745Z,52.70
2018-03-31T15:26:58.837Z,52.70
2018-03-31T15:29:26.311Z,52.90
2018-03-31T15:31:53.322Z,52.90
2018-03-31T15:34:20.344Z,53.40
2018-03-31T15:36:47.456Z,53.60
2018-03-31T15:39:14.483Z,53.70
2018-03-31T15:41:41.573Z,53.40
2018-03-31T15:44:08.998Z,54.90
2018-03-31T15:46:36.040Z,54.90
2018-03-31T15:49:03.083Z,55.10
2018-03-31T15:51:30.190Z,55.30
2018-03-31T15:53:57.253Z,55.70
2018-03-31T15:56:24.728Z,55.60
2018-03-31T15:58:52.225Z,55.80
2018-03-31T16:01:19.696Z,55.70
2018-03-31T16:03:47.121Z,55.40
2018-03-31T16:06:14.136Z,55.40
2018-03-31T16:08:41.169Z,55.50
2018-03-31T16:11:08.165Z,55.70
2018-03-31T16:13:35.248Z,56.20
2018-03-31T16:16:02.250Z,57.00
2018-03-31T16:18:29.736Z,56.70
2018-03-31T16:20:56.780Z,56.70
2018-03-31T16:23:23.796Z,57.30
2018-03-31T16:25:50.800Z,57.20
2018-03-31T16:28:17.876Z,57.60
2018-03-31T16:30:44.882Z,56.70
2018-03-31T16:33:12.358Z,57.90
2018-03-31T16:35:39.803Z,57.30
2018-03-31T16:38:06.814Z,57.30
2018-03-31T16:40:34.298Z,56.20
2018-03-31T16:43:01.775Z,57.20
2018-03-31T16:45:29.351Z,57.40
2018-03-31T16:47:56.362Z,57.40
2018-03-31T16:50:23.403Z,56.90
2018-03-31T16:52:50.805Z,57.20
2018-03-31T16:55:17.870Z,57.20
2018-03-31T16:57:45.265Z,57.10
2018-03-31T17:00:12.288Z,57.10
2018-03-31T17:02:39.368Z,56.70
2018-03-31T17:05:06.394Z,56.30
2018-03-31T17:07:33.454Z,56.90
2018-03-31T17:10:00.492Z,60.10
2018-03-31T17:12:27.917Z,55.70
2018-03-31T17:14:54.943Z,55.70
2018-03-31T17:17:21.936Z,56.40
2018-03-31T17:19:49.373Z,57.10
2018-03-31T17:22:16.397Z,57.10
2018-03-31T17:24:43.444Z,58.30
2018-03-31T17:27:10.512Z,58.70
2018-03-31T17:29:37.592Z,59.20
2018-03-31T17:32:04.676Z,59.40
2018-03-31T17:34:31.697Z,59.10
2018-03-31T17:36:58.722Z,59.40
2018-03-31T17:39:25.797Z,59.90
2018-03-31T17:41:53.253Z,59.30
2018-03-31T17:44:20.287Z,59.30
2018-03-31T17:46:47.288Z,59.40
2018-03-31T17:49:14.417Z,59.70
2018-03-31T17:51:41.866Z,60.80
2018-03-31T17:54:09.354Z,60.00
2018-03-31T17:56:36.366Z,60.00
2018-03-31T17:59:03.400Z,60.30
2018-03-31T18:01:30.812Z,61.40
2018-03-31T18:03:57.874Z,61.50
2018-03-31T18:06:25.032Z,61.80
2018-03-31T18:08:52.101Z,61.30
2018-03-31T18:11:19.507Z,62.20
2018-03-31T18:13:46.509Z,62.20
2018-03-31T18:16:13.615Z,63.00
2018-03-31T18:18:41.027Z,64.20
2018-03-31T18:21:08.186Z,64.20
2018-03-31T18:23:35.658Z,65.30
2018-03-31T18:26:03.076Z,65.30
2018-03-31T18:28:30.076Z,65.30
2018-03-31T18:30:57.182Z,65.60
2018-03-31T18:33:24.211Z,65.40
2018-03-31T18:35:51.326Z,64.70
2018-03-31T18:38:18.739Z,66.00
2018-03-31T18:40:45.869Z,66.00
2018-03-31T18:43:13.375Z,68.10
2018-03-31T18:45:40.807Z,68.70
2018-03-31T18:48:07.817Z,68.80
2018-03-31T18:50:35.236Z,68.90
2018-03-31T18:53:02.276Z,68.90
2018-03-31T18:55:29.705Z,69.30
2018-03-31T18:57:56.708Z,69.20
2018-03-31T19:00:23.732Z,69.00
2018-03-31T19:02:50.766Z,68.90
2018-03-31T19:05:18.240Z,68.70
2018-03-31T19:07:45.322Z,68.70
2018-03-31T19:10:12.754Z,69.80
2018-03-31T19:12:39.760Z,69.80
2018-03-31T19:15:06.790Z,70.00
2018-03-31T19:17:33.928Z,70.20
2018-03-31T19:20:01.377Z,70.50
2018-03-31T19:22:28.482Z,70.50
2018-03-31T19:25:01.596Z,72.00
2018-03-31T19:27:29.096Z,71.00
2018-03-31T19:29:56.106Z,71.00
2018-03-31T19:32:23.146Z,70.50
2018-03-31T19:34:50.148Z,71.30
2018-03-31T19:37:17.252Z,71.30
2018-03-31T19:39:50.753Z,71.40
2018-03-31T19:42:17.762Z,72.20
2018-03-31T19:44:45.232Z,72.80
2018-03-31T19:47:12.331Z,72.80
2018-03-31T19:49:39.341Z,72.20
2018-03-31T19:52:06.477Z,72.70
2018-03-31T19:54:33.518Z,73.10
2018-03-31T19:57:00.544Z,71.10
2018-03-31T19:59:27.562Z,69.90
2018-03-31T20:01:54.636Z,75.10
2018-03-31T20:04:21.637Z,78.00
2018-03-31T20:06:49.116Z,83.50
2018-03-31T20:09:16.546Z,84.70
2018-03-31T20:11:43.554Z,84.70
2018-03-31T20:14:10.562Z,85.80
2018-03-31T20:16:37.576Z,86.70
2018-03-31T20:19:04.582Z,87.70
2018-03-31T20:21:32.010Z,89.30
2018-03-31T20:23:59.026Z,89.30
2018-03-31T20:26:26.445Z,88.90
2018-03-31T20:28:53.478Z,88.90
2018-03-31T20:31:20.945Z,89.00
2018-03-31T20:33:48.023Z,89.00
2018-03-31T20:36:15.106Z,89.50
2018-03-31T20:38:42.492Z,90.00
2018-03-31T20:41:09.956Z,90.30
2018-03-31T20:43:36.959Z,90.30
2018-03-31T20:46:03.972Z,90.40
2018-03-31T20:48:30.968Z,90.20
2018-03-31T20:50:58.007Z,90.30
2018-03-31T20:53:25.010Z,91.40
2018-03-31T20:55:52.088Z,91.20
2018-03-31T20:58:19.118Z,90.30
2018-03-31T21:00:46.112Z,90.90
2018-03-31T21:03:13.117Z,91.80
2018-03-31T21:05:40.549Z,90.90
2018-03-31T21:08:07.570Z,91.00
2018-03-31T21:10:34.953Z,91.20
2018-03-31T21:13:02.430Z,92.10
2018-03-31T21:15:29.908Z,90.30
2018-03-31T21:17:57.391Z,90.60
2018-03-31T21:20:24.415Z,90.60
2018-03-31T21:22:51.520Z,90.60
2018-03-31T21:25:18.605Z,90.10
2018-03-31T21:27:45.678Z,90.30
2018-03-31T21:30:13.089Z,90.20
2018-03-31T21:32:40.125Z,90.20
2018-03-31T21:35:07.131Z,89.30
2018-03-31T21:37:34.154Z,89.60
2018-03-31T21:40:01.244Z,89.70
2018-03-31T21:42:28.327Z,89.40
2018-03-31T21:44:55.712Z,89.50
2018-03-31T21:47:23.148Z,89.70
2018-03-31T21:49:50.248Z,89.70
2018-03-31T21:52:17.352Z,90.30
2018-03-31T21:54:44.815Z,90.30
2018-03-31T21:57:12.284Z,90.10
2018-03-31T21:59:39.360Z,90.10
2018-03-31T22:02:06.371Z,89.80
2018-03-31T22:04:33.369Z,90.10
2018-03-31T22:07:00.388Z,90.30
2018-03-31T22:09:27.777Z,91.10
2018-03-31T22:11:55.180Z,90.60
2018-03-31T22:14:27.745Z,90.60
2018-03-31T22:16:54.819Z,91.30
2018-03-31T22:19:22.301Z,91.70
2018-03-31T22:21:49.360Z,91.70
2018-03-31T22:24:16.444Z,92.70
2018-03-31T22:26:43.442Z,93.00
2018-03-31T22:29:10.467Z,93.20
2018-03-31T22:31:37.469Z,93.10
2018-03-31T22:34:04.936Z,93.40
2018-03-31T22:36:32.355Z,92.70
2018-03-31T22:38:59.374Z,92.70
2018-03-31T22:41:26.372Z,92.90
2018-03-31T22:43:53.384Z,93.80
2018-03-31T22:46:20.391Z,93.70
2018-03-31T22:48:47.490Z,94.40
2018-03-31T22:51:14.877Z,93.50
2018-03-31T22:53:42.285Z,93.70
2018-03-31T22:56:09.280Z,93.70
2018-03-31T22:58:36.297Z,94.40
2018-03-31T23:01:03.288Z,93.80
2018-03-31T23:03:30.309Z,93.80
2018-03-31T23:05:57.319Z,93.60
2018-03-31T23:08:24.784Z,93.70
2018-03-31T23:10:51.791Z,93.60
2018-03-31T23:13:18.815Z,93.80
2018-03-31T23:15:46.238Z,94.20
2018-03-31T23:18:13.256Z,94.20
2018-03-31T23:20:40.261Z,94.50
2018-03-31T23:23:07.755Z,94.60
2018-03-31T23:25:35.162Z,94.80
2018-03-31T23:28:02.220Z,94.80
2018-03-31T23:30:29.226Z,95.00
2018-03-31T23:32:56.251Z,95.00
2018-03-31T23:35:23.649Z,95.10
2018-03-31T23:37:50.668Z,95.10
2018-03-31T23:40:17.748Z,94.20
2018-03-31T23:42:44.779Z,95.10
2018-03-31T23:45:11.802Z,94.50
2018-03-31T23:47:38.800Z,95.20
2018-03-31T23:50:05.822Z,94.60
2018-03-31T23:52:32.912Z,94.50
2018-03-31T23:54:59.989Z,94.20
2018-03-31T23:57:26.992Z,94.40
2018-03-31T23:59:54.033Z,94.30
